createdAt,value
2022-12-01T00:01:18.639Z,5.41
2022-12-01T00:03:45.222Z,5.40
2022-12-01T00:06:28.946Z,5.42
2022-12-01T00:09:19.192Z,5.45
2022-12-01T00:11:46.239Z,5.44
2022-12-01T00:14:18.983Z,5.43
2022-12-01T00:17:04.993Z,5.45
2022-12-01T00:19:33.601Z,5.46
2022-12-01T00:22:33.067Z,5.47
2022-12-01T00:25:17.732Z,5.47
2022-12-01T00:27:52.992Z,5.50
2022-12-01T00:30:27.596Z,5.51
2022-12-01T00:32:53.974Z,5.50
2022-12-01T00:36:05.099Z,5.50
2022-12-01T00:38:32.152Z,5.50
2022-12-01T00:40:58.607Z,5.52
2022-12-01T00:44:08.955Z,5.53
2022-12-01T00:46:35.419Z,5.52
2022-12-01T00:49:01.814Z,5.52
2022-12-01T00:51:28.281Z,5.52
2022-12-01T00:53:57.758Z,5.52
2022-12-01T00:57:07.779Z,5.53
2022-12-01T00:59:35.117Z,5.55
2022-12-01T01:02:06.509Z,5.55
2022-12-01T01:05:31.126Z,5.56
2022-12-01T01:08:10.265Z,5.57
2022-12-01T01:10:47.562Z,5.57
2022-12-01T01:13:16.346Z,5.56
2022-12-01T01:16:07.409Z,5.59
2022-12-01T01:18:34.167Z,5.61
2022-12-01T01:21:39.685Z,5.61
2022-12-01T01:24:06.451Z,5.63
2022-12-01T01:26:33.584Z,5.63
2022-12-01T01:29:02.307Z,5.63
2022-12-01T01:31:36.740Z,5.63
2022-12-01T01:34:03.968Z,5.64
2022-12-01T01:36:42.778Z,5.67
2022-12-01T01:39:26.624Z,5.67
2022-12-01T01:42:38.788Z,5.67
2022-12-01T01:49:05.347Z,5.65
2022-12-01T01:51:57.931Z,5.66
2022-12-01T01:54:31.556Z,5.67
2022-12-01T01:57:01.757Z,5.68
2022-12-01T01:59:42.839Z,5.66
2022-12-01T02:02:57.998Z,5.68
2022-12-01T02:05:28.007Z,5.67
2022-12-01T02:07:58.493Z,5.68
2022-12-01T02:11:09.747Z,5.68
2022-12-01T02:14:25.112Z,5.72
2022-12-01T02:17:32.087Z,5.72
2022-12-01T02:20:53.280Z,5.71
2022-12-01T02:23:48.162Z,5.72
2022-12-01T02:26:42.608Z,5.73
2022-12-01T02:29:18.195Z,5.72
2022-12-01T02:31:58.954Z,5.71
2022-12-01T02:34:44.311Z,5.70
2022-12-01T02:37:23.513Z,5.69
2022-12-01T02:40:26.565Z,5.70
2022-12-01T02:43:18.745Z,5.69
2022-12-01T02:46:10.906Z,5.67
2022-12-01T02:48:51.326Z,5.66
2022-12-01T02:51:26.643Z,5.64
2022-12-01T02:54:22.126Z,5.66
2022-12-01T02:56:52.851Z,5.68
2022-12-01T02:59:30.695Z,5.65
2022-12-01T03:02:49.613Z,5.65
2022-12-01T03:05:55.311Z,5.61
2022-12-01T03:08:28.789Z,5.64
2022-12-01T03:11:01.447Z,5.63
2022-12-01T03:14:12.567Z,5.65
2022-12-01T03:16:59.378Z,5.61
2022-12-01T03:19:37.247Z,5.59
2022-12-01T03:22:29.746Z,5.60
2022-12-01T03:25:01.337Z,5.61
2022-12-01T03:27:33.369Z,5.60
2022-12-01T03:30:29.756Z,5.61
2022-12-01T03:33:09.903Z,5.61
2022-12-01T03:35:56.289Z,5.63
2022-12-01T03:38:27.828Z,5.65
2022-12-01T03:41:03.532Z,5.65
2022-12-01T03:43:36.777Z,5.63
2022-12-01T03:46:15.552Z,5.62
2022-12-01T03:49:17.332Z,5.61
2022-12-01T03:52:28.450Z,5.61
2022-12-01T03:55:32.162Z,5.60
2022-12-01T03:58:04.406Z,5.59
2022-12-01T04:00:43.768Z,5.59
2022-12-01T04:03:35.780Z,5.58
2022-12-01T04:06:55.228Z,5.56
2022-12-01T04:09:24.177Z,5.58
2022-12-01T04:16:25.836Z,5.55
2022-12-01T04:19:06.760Z,5.54
2022-12-01T04:21:35.271Z,5.54
2022-12-01T04:24:30.742Z,5.53
2022-12-01T04:27:02.211Z,5.52
2022-12-01T04:29:28.594Z,5.51
2022-12-01T04:31:55.219Z,5.49
2022-12-01T04:34:40.914Z,5.50
2022-12-01T04:37:12.132Z,5.49
2022-12-01T04:39:38.668Z,5.49
2022-12-01T04:42:25.388Z,5.46
2022-12-01T04:45:12.146Z,5.47
2022-12-01T04:47:38.608Z,5.47
2022-12-01T04:50:05.676Z,5.46
2022-12-01T04:52:35.277Z,5.49
2022-12-01T04:55:03.359Z,5.47
2022-12-01T04:57:49.934Z,5.50
2022-12-01T05:00:16.508Z,5.50
2022-12-01T05:02:43.690Z,5.51
2022-12-01T05:05:38.967Z,5.50
2022-12-01T05:08:09.802Z,5.47
2022-12-01T05:10:37.551Z,5.49
2022-12-01T05:13:05.603Z,5.50
2022-12-01T05:19:53.359Z,5.46
2022-12-01T05:23:05.315Z,5.46
2022-12-01T05:26:01.310Z,5.38
2022-12-01T05:28:41.987Z,5.37
2022-12-01T05:31:08.459Z,5.33
2022-12-01T05:33:49.158Z,5.32
2022-12-01T05:36:15.715Z,5.32
2022-12-01T05:38:42.147Z,5.31
2022-12-01T05:41:09.219Z,5.30
2022-12-01T05:43:35.782Z,5.29
2022-12-01T05:46:02.419Z,5.27
2022-12-01T05:48:43.335Z,5.28
2022-12-01T05:51:59.706Z,5.27
2022-12-01T05:54:26.171Z,5.28
2022-12-01T05:57:20.558Z,5.30
2022-12-01T05:59:56.442Z,5.31
2022-12-01T06:03:02.183Z,5.30
2022-12-01T06:05:28.636Z,5.26
2022-12-01T06:08:10.408Z,5.26
2022-12-01T06:10:54.299Z,5.21
2022-12-01T06:13:27.930Z,5.17
2022-12-01T06:16:21.623Z,5.13
2022-12-01T06:18:59.425Z,5.06
2022-12-01T06:21:40.043Z,5.03
2022-12-01T06:24:22.861Z,5.01
2022-12-01T06:26:57.535Z,5.00
2022-12-01T06:29:23.903Z,4.96
2022-12-01T06:31:51.555Z,4.92
2022-12-01T06:34:31.216Z,4.85
2022-12-01T06:37:47.617Z,4.79
2022-12-01T06:40:14.419Z,4.76
2022-12-01T06:42:41.897Z,4.68
2022-12-01T06:45:50.254Z,4.62
2022-12-01T06:48:31.623Z,4.53
2022-12-01T06:51:06.099Z,4.47
2022-12-01T06:53:47.774Z,4.40
2022-12-01T06:56:52.359Z,4.35
2022-12-01T06:59:21.109Z,4.34
2022-12-01T07:01:58.093Z,4.31
2022-12-01T07:04:24.520Z,4.28
2022-12-01T07:06:50.915Z,4.22
2022-12-01T07:09:34.825Z,4.24
2022-12-01T07:12:15.533Z,4.23
2022-12-01T07:15:19.642Z,4.18
2022-12-01T07:17:48.062Z,4.16
2022-12-01T07:20:33.848Z,4.18
2022-12-01T07:23:31.963Z,4.18
2022-12-01T07:26:00.388Z,4.17
2022-12-01T07:28:27.974Z,4.16
2022-12-01T07:31:28.623Z,4.14
2022-12-01T07:34:06.572Z,4.16
2022-12-01T07:36:39.307Z,4.15
2022-12-01T07:39:08.747Z,4.17
2022-12-01T07:41:35.771Z,4.18
2022-12-01T07:44:32.420Z,4.17
2022-12-01T07:47:31.957Z,4.18
2022-12-01T07:50:21.346Z,4.19
2022-12-01T07:52:59.071Z,4.21
2022-12-01T07:55:25.570Z,4.21
2022-12-01T07:58:02.300Z,4.22
2022-12-01T08:00:29.847Z,4.24
2022-12-01T08:02:56.400Z,4.30
2022-12-01T08:05:22.827Z,4.35
2022-12-01T08:07:49.329Z,4.40
2022-12-01T08:10:44.719Z,4.44
2022-12-01T08:13:17.002Z,4.49
2022-12-01T08:15:44.221Z,4.53
2022-12-01T08:18:26.987Z,4.56
2022-12-01T08:21:01.762Z,4.63
2022-12-01T08:23:37.477Z,4.66
2022-12-01T08:26:06.755Z,4.70
2022-12-01T08:28:46.316Z,4.72
2022-12-01T08:31:33.230Z,4.74
2022-12-01T08:34:37.970Z,4.78
2022-12-01T08:37:04.536Z,4.80
2022-12-01T08:39:30.988Z,4.83
2022-12-01T08:42:03.765Z,4.87
2022-12-01T08:44:32.232Z,4.89
2022-12-01T08:46:58.797Z,4.93
2022-12-01T08:49:26.379Z,4.97
2022-12-01T08:51:52.897Z,4.98
2022-12-01T08:54:19.309Z,5.01
2022-12-01T08:56:45.911Z,5.02
2022-12-01T08:59:13.008Z,5.07
2022-12-01T09:01:52.226Z,5.08
2022-12-01T09:04:26.681Z,5.13
2022-12-01T09:06:56.228Z,5.17
2022-12-01T09:09:28.605Z,5.19
2022-12-01T09:12:03.370Z,5.22
2022-12-01T09:14:29.739Z,5.26
2022-12-01T09:16:56.132Z,5.26
2022-12-01T09:19:25.108Z,5.25
2022-12-01T09:21:52.506Z,5.27
2022-12-01T09:24:18.879Z,5.28
2022-12-01T09:26:45.338Z,5.29
2022-12-01T09:29:13.738Z,5.31
2022-12-01T09:31:41.315Z,5.33
2022-12-01T09:34:11.871Z,5.34
2022-12-01T09:36:38.970Z,5.38
2022-12-01T09:39:11.821Z,5.40
2022-12-01T09:41:40.683Z,5.41
2022-12-01T09:44:13.953Z,5.42
2022-12-01T09:46:46.010Z,5.43
2022-12-01T09:49:18.867Z,5.47
2022-12-01T09:51:45.498Z,5.50
2022-12-01T09:54:14.276Z,5.51
2022-12-01T09:56:52.909Z,5.55
2022-12-01T09:59:48.685Z,5.57
2022-12-01T10:02:32.481Z,5.61
2022-12-01T10:05:04.390Z,5.63
2022-12-01T10:07:42.897Z,5.67
2022-12-01T10:10:24.913Z,5.66
2022-12-01T10:13:19.907Z,5.69
2022-12-01T10:16:13.231Z,5.70
2022-12-01T10:18:46.270Z,5.74
2022-12-01T10:21:22.090Z,5.75
2022-12-01T10:24:17.302Z,5.82
2022-12-01T10:27:29.455Z,5.85
2022-12-01T10:30:39.219Z,5.87
2022-12-01T10:33:49.209Z,5.91
2022-12-01T10:36:18.660Z,5.95
2022-12-01T10:39:07.102Z,5.98
2022-12-01T10:41:37.749Z,5.97
2022-12-01T10:44:19.694Z,5.95
2022-12-01T10:46:49.188Z,5.94
2022-12-01T10:49:17.624Z,5.93
2022-12-01T10:52:07.488Z,5.93
2022-12-01T10:54:38.487Z,5.97
2022-12-01T10:57:16.153Z,5.99
2022-12-01T10:59:53.129Z,5.99
2022-12-01T11:02:22.847Z,6.00
2022-12-01T11:04:55.775Z,6.07
2022-12-01T11:07:34.879Z,6.18
2022-12-01T11:10:37.243Z,6.30
2022-12-01T11:13:35.599Z,6.45
2022-12-01T11:16:04.960Z,6.63
2022-12-01T11:18:42.821Z,6.78
2022-12-01T11:21:13.442Z,6.81
2022-12-01T11:23:48.203Z,7.01
2022-12-01T11:26:58.334Z,7.16
2022-12-01T11:29:32.605Z,7.04
2022-12-01T11:32:00.709Z,6.98
2022-12-01T11:34:50.830Z,7.20
2022-12-01T11:37:38.550Z,8.01
2022-12-01T11:40:43.755Z,8.53
2022-12-01T11:43:21.198Z,8.34
2022-12-01T11:45:53.330Z,8.86
2022-12-01T11:48:29.233Z,8.78
2022-12-01T11:51:24.074Z,8.67
2022-12-01T11:54:05.831Z,8.13
2022-12-01T11:56:52.807Z,7.64
2022-12-01T11:59:30.834Z,7.37
2022-12-01T12:02:09.959Z,7.21
2022-12-01T12:04:56.067Z,7.13
2022-12-01T12:07:34.917Z,7.06
2022-12-01T12:10:51.216Z,7.04
2022-12-01T12:14:03.276Z,6.98
2022-12-01T12:20:53.734Z,6.92
2022-12-01T12:23:47.751Z,6.87
2022-12-01T12:26:22.849Z,6.88
2022-12-01T12:29:22.003Z,6.86
2022-12-01T12:32:05.002Z,6.88
2022-12-01T12:35:09.776Z,6.87
2022-12-01T12:37:53.752Z,6.84
2022-12-01T12:40:43.434Z,6.80
2022-12-01T12:43:55.675Z,6.76
2022-12-01T12:47:04.293Z,6.71
2022-12-01T12:49:45.779Z,6.63
2022-12-01T12:52:33.168Z,6.59
2022-12-01T12:55:08.391Z,6.59
2022-12-01T12:57:48.303Z,6.59
2022-12-01T13:01:05.785Z,6.58
2022-12-01T13:04:03.742Z,6.60
2022-12-01T13:07:15.642Z,6.61
2022-12-01T13:10:06.995Z,6.65
2022-12-01T13:12:58.331Z,6.69
2022-12-01T13:15:27.257Z,6.67
2022-12-01T13:18:02.646Z,6.64
2022-12-01T13:20:34.743Z,6.60
2022-12-01T13:23:16.566Z,6.57
2022-12-01T13:26:01.222Z,6.53
2022-12-01T13:28:35.274Z,6.51
2022-12-01T13:31:15.071Z,6.52
2022-12-01T13:34:01.791Z,6.50
2022-12-01T13:36:49.477Z,6.50
2022-12-01T13:39:59.743Z,6.53
2022-12-01T13:42:54.671Z,6.48
2022-12-01T13:46:06.023Z,6.49
2022-12-01T13:48:41.645Z,6.47
2022-12-01T13:51:08.395Z,6.47
2022-12-01T13:57:27.055Z,6.47
2022-12-01T13:59:59.389Z,6.45
2022-12-01T14:02:28.458Z,6.41
2022-12-01T14:04:55.040Z,6.40
2022-12-01T14:07:26.307Z,6.37
2022-12-01T14:10:08.310Z,6.35
2022-12-01T14:12:51.366Z,6.35
2022-12-01T14:15:37.628Z,6.34
2022-12-01T14:18:08.270Z,6.34
2022-12-01T14:20:49.431Z,6.33
2022-12-01T14:23:36.992Z,6.31
2022-12-01T14:26:49.856Z,6.30
2022-12-01T14:29:46.307Z,6.29
2022-12-01T14:32:22.765Z,6.26
2022-12-01T14:34:54.699Z,6.25
2022-12-01T14:37:25.509Z,6.24
2022-12-01T14:39:58.048Z,6.22
2022-12-01T14:43:08.515Z,6.19
2022-12-01T14:46:06.087Z,6.18
2022-12-01T14:48:39.082Z,6.16
2022-12-01T14:51:56.356Z,6.13
2022-12-01T14:54:43.144Z,6.11
2022-12-01T14:57:16.738Z,6.08
2022-12-01T14:59:44.479Z,6.07
2022-12-01T15:02:17.221Z,6.05
2022-12-01T15:05:15.798Z,6.03
2022-12-01T15:07:45.571Z,6.01
2022-12-01T15:10:48.033Z,5.98
2022-12-01T15:13:45.161Z,5.93
2022-12-01T15:16:18.652Z,5.88
2022-12-01T15:18:45.521Z,5.84
2022-12-01T15:21:47.107Z,5.78
2022-12-01T15:24:30.595Z,5.75
2022-12-01T15:27:03.668Z,5.69
2022-12-01T15:29:35.415Z,5.63
2022-12-01T15:32:08.450Z,5.52
2022-12-01T15:35:05.334Z,5.47
2022-12-01T15:37:42.474Z,5.42
2022-12-01T15:43:23.242Z,5.28
2022-12-01T15:46:37.466Z,5.21
2022-12-01T15:49:33.141Z,5.12
2022-12-01T15:52:11.869Z,5.08
2022-12-01T15:54:38.862Z,5.00
2022-12-01T15:57:56.944Z,4.94
2022-12-01T16:00:26.690Z,4.87
2022-12-01T16:02:57.372Z,4.84
2022-12-01T16:05:30.106Z,4.80
2022-12-01T16:08:48.689Z,4.73
2022-12-01T16:11:18.223Z,4.67
2022-12-01T16:14:21.688Z,4.63
2022-12-01T16:17:43.003Z,4.57
2022-12-01T16:20:25.655Z,4.54
2022-12-01T16:23:22.389Z,4.51
2022-12-01T16:25:49.019Z,4.47
2022-12-01T16:28:23.121Z,4.45
2022-12-01T16:30:50.327Z,4.42
2022-12-01T16:33:42.718Z,4.40
2022-12-01T16:36:54.311Z,4.37
2022-12-01T16:39:43.368Z,4.35
2022-12-01T16:42:24.541Z,4.33
2022-12-01T16:44:52.566Z,4.33
2022-12-01T16:47:24.992Z,4.30
2022-12-01T16:49:52.237Z,4.26
2022-12-01T16:52:44.911Z,4.22
2022-12-01T16:55:33.041Z,4.19
2022-12-01T16:58:00.606Z,4.18
2022-12-01T17:00:33.150Z,4.17
2022-12-01T17:03:12.747Z,4.17
2022-12-01T17:05:40.462Z,4.13
2022-12-01T17:08:07.031Z,4.10
2022-12-01T17:10:33.571Z,4.08
2022-12-01T17:13:00.211Z,4.07
2022-12-01T17:16:19.071Z,4.05
2022-12-01T17:18:45.568Z,3.99
2022-12-01T17:21:32.294Z,4.00
2022-12-01T17:24:04.371Z,4.00
2022-12-01T17:26:37.971Z,3.95
2022-12-01T17:29:14.630Z,3.92
2022-12-01T17:31:41.012Z,3.88
2022-12-01T17:34:07.410Z,3.86
2022-12-01T17:36:33.767Z,3.86
2022-12-01T17:39:10.471Z,3.81
2022-12-01T17:41:36.819Z,3.80
2022-12-01T17:47:57.882Z,3.78
2022-12-01T17:54:13.964Z,3.71
2022-12-01T17:57:27.252Z,3.69
2022-12-01T18:00:22.723Z,3.68
2022-12-01T18:03:24.043Z,3.65
2022-12-01T18:06:12.475Z,3.61
2022-12-01T18:08:59.616Z,3.61
2022-12-01T18:11:31.766Z,3.58
2022-12-01T18:14:10.526Z,3.57
2022-12-01T18:16:36.940Z,3.57
2022-12-01T18:19:04.388Z,3.53
2022-12-01T18:21:30.849Z,3.53
2022-12-01T18:24:02.790Z,3.51
2022-12-01T18:27:08.268Z,3.50
2022-12-01T18:29:50.047Z,3.49
2022-12-01T18:32:31.190Z,3.46
2022-12-01T18:35:19.436Z,3.48
2022-12-01T18:38:04.123Z,3.47
2022-12-01T18:40:30.479Z,3.48
2022-12-01T18:43:01.788Z,3.48
2022-12-01T18:45:43.458Z,3.46
2022-12-01T18:51:54.520Z,3.39
2022-12-01T18:54:20.906Z,3.40
2022-12-01T18:57:03.812Z,3.41
2022-12-01T18:59:45.437Z,3.42
2022-12-01T19:02:21.986Z,3.42
2022-12-01T19:04:50.044Z,3.45
2022-12-01T19:07:16.683Z,3.49
2022-12-01T19:09:51.230Z,3.51
2022-12-01T19:12:29.797Z,3.56
2022-12-01T19:14:56.908Z,3.59
2022-12-01T19:17:32.008Z,3.66
2022-12-01T19:19:59.054Z,3.71
2022-12-01T19:22:28.557Z,3.73
2022-12-01T19:24:55.230Z,3.75
2022-12-01T19:27:21.933Z,3.81
2022-12-01T19:29:49.477Z,3.84
2022-12-01T19:32:16.151Z,3.88
2022-12-01T19:35:00.004Z,3.94
2022-12-01T19:37:30.542Z,3.99
2022-12-01T19:40:03.192Z,4.03
2022-12-01T19:42:34.647Z,4.05
2022-12-01T19:45:21.283Z,4.09
2022-12-01T19:47:47.780Z,4.14
2022-12-01T19:50:16.177Z,4.18
2022-12-01T19:52:51.876Z,4.21
2022-12-01T19:55:18.270Z,4.22
2022-12-01T19:57:44.728Z,4.26
2022-12-01T20:00:11.808Z,4.27
2022-12-01T20:02:38.273Z,4.31
2022-12-01T20:05:22.058Z,4.33
2022-12-01T20:07:48.622Z,4.34
2022-12-01T20:10:19.983Z,4.35
2022-12-01T20:12:50.580Z,4.37
2022-12-01T20:15:17.352Z,4.38
2022-12-01T20:17:56.008Z,4.40
2022-12-01T20:20:22.467Z,4.41
2022-12-01T20:22:48.903Z,4.43
2022-12-01T20:25:15.360Z,4.43
2022-12-01T20:27:42.503Z,4.46
2022-12-01T20:30:09.616Z,4.47
2022-12-01T20:32:36.004Z,4.46
2022-12-01T20:35:02.544Z,4.48
2022-12-01T20:37:28.939Z,4.47
2022-12-01T20:39:55.789Z,4.47
2022-12-01T20:42:24.450Z,4.47
2022-12-01T20:44:51.034Z,4.48
2022-12-01T20:47:21.245Z,4.50
2022-12-01T20:49:47.787Z,4.52
2022-12-01T20:52:14.172Z,4.52
2022-12-01T20:54:42.438Z,4.52
2022-12-01T20:57:08.919Z,4.52
2022-12-01T20:59:35.360Z,4.53
2022-12-01T21:02:01.822Z,4.55
2022-12-01T21:04:28.229Z,4.56
2022-12-01T21:06:56.422Z,4.57
2022-12-01T21:09:22.794Z,4.57
2022-12-01T21:12:09.320Z,4.57
2022-12-01T21:15:08.292Z,4.60
2022-12-01T21:17:42.565Z,4.61
2022-12-01T21:20:39.344Z,4.62
2022-12-01T21:23:10.775Z,4.64
2022-12-01T21:25:39.116Z,4.63
2022-12-01T21:28:24.181Z,4.63
2022-12-01T21:31:01.892Z,4.64
2022-12-01T21:33:35.355Z,4.65
2022-12-01T21:36:06.836Z,4.63
2022-12-01T21:38:33.378Z,4.63
2022-12-01T21:41:09.348Z,4.65
2022-12-01T21:43:38.423Z,4.65
2022-12-01T21:46:13.639Z,4.67
2022-12-01T21:48:47.583Z,4.65
2022-12-01T21:51:23.979Z,4.65
2022-12-01T21:53:52.412Z,4.65
2022-12-01T21:56:25.365Z,4.66
2022-12-01T21:58:53.065Z,4.65
2022-12-01T22:01:29.476Z,4.66
2022-12-01T22:04:31.348Z,4.65
2022-12-01T22:06:58.191Z,4.68
2022-12-01T22:09:31.866Z,4.67
2022-12-01T22:12:27.069Z,4.67
2022-12-01T22:14:59.959Z,4.67
2022-12-01T22:17:27.919Z,4.68
2022-12-01T22:20:27.876Z,4.71
2022-12-01T22:22:54.251Z,4.71
2022-12-01T22:25:27.008Z,4.70
2022-12-01T22:27:53.451Z,4.70
2022-12-01T22:30:22.023Z,4.71
2022-12-01T22:36:31.734Z,4.73
2022-12-01T22:38:58.671Z,4.73
2022-12-01T22:41:26.759Z,4.75
2022-12-01T22:44:00.609Z,4.76
2022-12-01T22:46:29.447Z,4.78
2022-12-01T22:49:22.148Z,4.77
2022-12-01T22:52:01.043Z,4.75
2022-12-01T22:54:32.219Z,4.76
2022-12-01T22:57:11.964Z,4.77
2022-12-01T22:59:41.287Z,4.75
2022-12-01T23:05:57.331Z,4.77
2022-12-01T23:08:49.643Z,4.78
2022-12-01T23:11:30.412Z,4.77
2022-12-01T23:14:13.363Z,4.76
2022-12-01T23:16:40.014Z,4.77
2022-12-01T23:19:09.717Z,4.78
2022-12-01T23:21:36.548Z,4.76
2022-12-01T23:24:04.304Z,4.76
2022-12-01T23:27:21.502Z,4.75
2022-12-01T23:29:51.083Z,4.76
2022-12-01T23:32:27.906Z,4.77
2022-12-01T23:34:59.881Z,4.77
2022-12-01T23:37:34.580Z,4.77
2022-12-01T23:40:29.659Z,4.75
2022-12-01T23:43:02.839Z,4.74
2022-12-01T23:45:36.427Z,4.73
2022-12-01T23:48:17.468Z,4.73
2022-12-01T23:50:49.009Z,4.73
2022-12-01T23:53:25.357Z,4.75
2022-12-01T23:55:51.872Z,4.75
2022-12-01T23:58:20.560Z,4.75
